Time;durP1;ratioP1;P1;durP2;ratioP2;P2;SDS_P1;SDS_P2;PMS_P1;PMS_P2;Temp;Humidity;BMP_temperature;BMP_pressure;BME280_temperature;BME280_humidity;BME280_pressure;Samples;Min_cycle;Max_cycle;Signal;HPM_P1;HPM_P2
2024/03/02 00:00:36;;;;;;;11.73;10.27;;;6.10;99.90;;;;;;5026532;28;20669;-76
2024/03/02 00:03:03;;;;;;;13.15;10.05;;;6.00;99.90;;;;;;5025944;28;20717;-76
2024/03/02 00:05:30;;;;;;;10.80;9.70;;;6.10;99.90;;;;;;5024868;28;20229;-76
2024/03/02 00:07:58;;;;;;;11.73;9.27;;;6.20;99.90;;;;;;5024758;28;20250;-76
2024/03/02 00:10:31;;;;;;;12.87;9.23;;;6.00;99.90;;;;;;5024880;28;20197;-76
2024/03/02 00:12:58;;;;;;;12.02;8.68;;;6.00;99.90;;;;;;5026003;28;20639;-76
2024/03/02 00:15:43;;;;;;;8.90;8.00;;;6.10;99.90;;;;;;5025468;28;20736;-76
2024/03/02 00:18:13;;;;;;;13.10;8.57;;;6.00;99.90;;;;;;5018108;28;20198;-76
2024/03/02 00:20:40;;;;;;;14.85;10.65;;;5.80;99.90;;;;;;5024740;28;20216;-76
2024/03/02 00:23:08;;;;;;;13.25;9.63;;;5.90;99.90;;;;;;5024012;28;20323;-76
2024/03/02 00:25:41;;;;;;;13.02;9.35;;;6.00;99.90;;;;;;5025442;28;20320;-76
2024/03/02 00:28:17;;;;;;;13.52;9.65;;;6.10;99.90;;;;;;5024587;28;20196;-76
2024/03/02 00:31:05;;;;;;;11.23;8.85;;;6.10;99.90;;;;;;5024689;28;20231;-76
2024/03/02 00:33:34;;;;;;;14.95;9.75;;;6.20;99.90;;;;;;5016977;28;20632;-76
2024/03/02 00:36:01;;;;;;;11.18;9.30;;;5.80;99.90;;;;;;5023398;28;20776;-76
2024/03/02 00:38:29;;;;;;;10.95;8.70;;;6.10;99.90;;;;;;5024289;28;20207;-76
2024/03/02 00:40:59;;;;;;;12.13;9.20;;;6.10;99.90;;;;;;5023616;28;20204;-76
2024/03/02 00:43:44;;;;;;;10.57;9.40;;;6.10;99.90;;;;;;5024200;28;20319;-76
2024/03/02 00:46:13;;;;;;;10.48;8.82;;;6.10;99.90;;;;;;5024498;28;20201;-76
2024/03/02 00:48:43;;;;;;;13.05;9.32;;;6.10;99.90;;;;;;5031909;28;20203;-76
2024/03/02 00:51:10;;;;;;;14.02;9.73;;;6.10;99.90;;;;;;5027791;28;20208;-76
2024/03/02 00:53:38;;;;;;;11.15;9.60;;;6.10;99.90;;;;;;5027305;28;20206;-77
2024/03/02 00:56:11;;;;;;;11.57;9.65;;;6.30;99.90;;;;;;5030693;28;20200;-77
2024/03/02 00:58:38;;;;;;;11.73;9.38;;;6.20;99.90;;;;;;5031095;28;20658;-76
2024/03/02 01:01:05;;;;;;;12.55;9.10;;;6.20;99.90;;;;;;5021385;28;20201;-76
2024/03/02 01:03:34;;;;;;;9.80;8.40;;;6.20;99.90;;;;;;5030959;28;20204;-76
2024/03/02 01:06:02;;;;;;;11.43;9.00;;;6.20;99.90;;;;;;5025015;28;20207;-78
2024/03/02 01:08:30;;;;;;;12.57;9.38;;;6.20;99.90;;;;;;5028300;28;20638;-76
2024/03/02 01:10:58;;;;;;;11.35;9.40;;;6.10;99.90;;;;;;5020429;28;20277;-76
2024/03/02 01:13:27;;;;;;;11.05;8.90;;;6.10;99.90;;;;;;5032028;28;20212;-76
2024/03/02 01:15:54;;;;;;;10.47;8.73;;;6.00;99.90;;;;;;5030779;28;20287;-76
2024/03/02 01:18:22;;;;;;;13.25;9.57;;;6.10;99.90;;;;;;5027342;28;20673;-76
2024/03/02 01:20:51;;;;;;;12.77;9.10;;;6.00;99.90;;;;;;5025142;28;20679;-76
2024/03/02 01:23:19;;;;;;;10.48;8.23;;;5.90;99.90;;;;;;5017640;28;20224;-76
2024/03/02 01:25:46;;;;;;;9.23;8.00;;;5.90;99.90;;;;;;5029728;28;20197;-76
2024/03/02 01:28:13;;;;;;;11.93;9.43;;;5.90;99.90;;;;;;5032353;28;20215;-76
2024/03/02 01:30:41;;;;;;;13.50;9.10;;;5.70;99.90;;;;;;5029280;28;20209;-76
2024/03/02 01:33:08;;;;;;;13.88;8.35;;;5.90;99.90;;;;;;5029361;28;20214;-76
2024/03/02 01:35:35;;;;;;;14.18;9.40;;;5.80;99.90;;;;;;5031231;28;20205;-76
2024/03/02 01:38:01;;;;;;;11.02;8.38;;;5.80;99.90;;;;;;5032255;28;20451;-76
2024/03/02 01:40:28;;;;;;;8.97;7.33;;;5.70;99.90;;;;;;5032844;28;20246;-76
2024/03/02 01:42:57;;;;;;;11.98;10.75;;;5.70;99.90;;;;;;5033291;28;21244;-76
2024/03/02 01:45:24;;;;;;;10.30;8.75;;;5.70;99.90;;;;;;5029937;28;20200;-76
2024/03/02 01:47:53;;;;;;;12.00;9.68;;;5.70;99.90;;;;;;5028256;28;20207;-76
2024/03/02 01:50:26;;;;;;;14.32;11.70;;;5.70;99.90;;;;;;5031341;28;20549;-76
2024/03/02 01:52:53;;;;;;;16.05;10.93;;;5.60;99.90;;;;;;5032695;28;20208;-76
2024/03/02 01:55:21;;;;;;;16.83;10.18;;;5.60;99.90;;;;;;5031979;28;20219;-76
2024/03/02 01:57:48;;;;;;;10.88;9.00;;;5.60;99.90;;;;;;5032258;28;20428;-76
2024/03/02 02:00:16;;;;;;;12.52;10.35;;;5.50;99.90;;;;;;5028282;28;20204;-77
2024/03/02 02:02:43;;;;;;;13.00;9.80;;;5.50;99.90;;;;;;5029112;28;20242;-76
2024/03/02 02:05:11;;;;;;;14.13;9.45;;;5.50;99.90;;;;;;5026417;28;20629;-76
2024/03/02 02:07:38;;;;;;;11.85;9.07;;;5.40;99.90;;;;;;5028017;28;20196;-76
2024/03/02 02:10:07;;;;;;;8.80;7.53;;;5.30;99.90;;;;;;5031742;28;20205;-76
2024/03/02 02:12:35;;;;;;;14.57;10.02;;;5.20;99.90;;;;;;5030623;28;20622;-76
2024/03/02 02:15:03;;;;;;;11.63;8.80;;;5.20;99.90;;;;;;5018577;28;20208;-76
2024/03/02 02:17:31;;;;;;;11.80;8.27;;;5.20;99.90;;;;;;5029817;28;20201;-77
2024/03/02 02:19:58;;;;;;;8.63;7.72;;;5.10;99.90;;;;;;5030739;28;20220;-76
2024/03/02 02:22:26;;;;;;;10.75;8.98;;;5.00;99.90;;;;;;5030703;28;20217;-76
2024/03/02 02:24:53;;;;;;;11.02;8.23;;;4.90;99.90;;;;;;5030048;28;20210;-76
2024/03/02 02:27:20;;;;;;;11.63;8.18;;;5.00;99.90;;;;;;5026337;28;20189;-77
2024/03/02 02:29:47;;;;;;;12.00;8.57;;;4.70;99.90;;;;;;5029149;28;20200;-76
2024/03/02 02:32:15;;;;;;;10.18;8.90;;;4.90;99.90;;;;;;5027218;28;20204;-76
2024/03/02 02:34:43;;;;;;;13.57;8.43;;;4.90;99.90;;;;;;5029535;28;20238;-77
2024/03/02 02:37:10;;;;;;;10.43;7.40;;;4.80;99.90;;;;;;5029407;28;20226;-77
2024/03/02 02:39:39;;;;;;;10.32;8.27;;;4.90;99.90;;;;;;5029102;28;20200;-77
2024/03/02 02:42:07;;;;;;;10.27;7.72;;;4.60;99.90;;;;;;5019371;28;20228;-77
2024/03/02 02:44:36;;;;;;;11.43;8.10;;;4.60;99.90;;;;;;5029032;28;20283;-77
2024/03/02 02:47:03;;;;;;;10.27;9.13;;;4.70;99.90;;;;;;5028370;28;20232;-78
2024/03/02 02:49:35;;;;;;;12.05;8.98;;;4.70;99.90;;;;;;5028031;28;20293;-77
2024/03/02 02:52:03;;;;;;;10.65;8.50;;;4.70;99.90;;;;;;5028757;28;20729;-77
2024/03/02 02:54:31;;;;;;;10.48;8.05;;;4.80;99.90;;;;;;5026260;28;20543;-77
2024/03/02 02:57:00;;;;;;;14.13;8.73;;;4.80;99.90;;;;;;5026714;28;20241;-77
2024/03/02 02:59:28;;;;;;;14.23;8.98;;;4.80;99.90;;;;;;5029001;28;20236;-78
2024/03/02 03:01:55;;;;;;;12.25;9.05;;;4.80;99.90;;;;;;5027602;28;20562;-78
2024/03/02 03:04:23;;;;;;;12.70;10.15;;;4.80;99.90;;;;;;5027748;28;20204;-77
2024/03/02 03:06:51;;;;;;;9.80;8.23;;;4.70;99.90;;;;;;5027385;28;20291;-77
2024/03/02 03:09:18;;;;;;;10.93;8.40;;;4.70;99.90;;;;;;5026138;28;20254;-77
2024/03/02 03:11:45;;;;;;;12.45;8.02;;;4.70;99.90;;;;;;5026664;28;20234;-77
2024/03/02 03:14:14;;;;;;;12.00;9.23;;;4.70;99.90;;;;;;5027709;28;20242;-78
2024/03/02 03:16:41;;;;;;;11.13;8.68;;;4.70;99.90;;;;;;5026632;28;20196;-77
2024/03/02 03:19:08;;;;;;;11.32;8.57;;;4.60;99.90;;;;;;5025891;28;20511;-77
2024/03/02 03:21:36;;;;;;;12.45;10.02;;;4.60;99.90;;;;;;5026917;28;20261;-77
2024/03/02 03:24:04;;;;;;;13.55;10.25;;;4.70;99.90;;;;;;5026102;28;20228;-77
2024/03/02 03:26:32;;;;;;;10.25;8.38;;;;;;;;;;5026199;28;20204;-77
2024/03/02 03:29:02;;;;;;;11.43;9.20;;;4.60;99.90;;;;;;5026727;28;20196;-77
2024/03/02 03:31:31;;;;;;;9.75;8.30;;;4.60;99.90;;;;;;5026161;28;20659;-77
2024/03/02 03:33:59;;;;;;;11.63;8.63;;;4.60;99.90;;;;;;5026132;28;20303;-77
2024/03/02 03:36:27;;;;;;;10.95;8.43;;;4.60;99.90;;;;;;5025114;28;20473;-77
2024/03/02 03:38:54;;;;;;;12.15;8.98;;;4.80;99.90;;;;;;5026005;28;20212;-77
2024/03/02 03:41:22;;;;;;;12.98;9.05;;;4.50;99.90;;;;;;5024765;28;20283;-77
2024/03/02 03:43:49;;;;;;;12.00;7.93;;;4.50;99.90;;;;;;5025307;28;20320;-77
2024/03/02 03:46:16;;;;;;;14.25;9.10;;;4.50;99.90;;;;;;5023252;28;20219;-77
2024/03/02 03:48:45;;;;;;;10.93;8.80;;;4.50;99.90;;;;;;5026643;28;20718;-77
2024/03/02 03:51:11;;;;;;;15.85;9.95;;;4.50;99.90;;;;;;5019890;28;20680;-77
2024/03/02 03:53:39;;;;;;;11.70;9.40;;;4.50;99.90;;;;;;5022844;28;20626;-77
2024/03/02 03:56:06;;;;;;;10.85;9.48;;;4.60;99.90;;;;;;5026433;28;20654;-77
2024/03/02 03:58:33;;;;;;;11.52;9.05;;;4.40;99.90;;;;;;5032070;28;20251;-77
2024/03/02 04:00:59;;;;;;;14.48;9.20;;;4.50;99.90;;;;;;5027601;28;20201;-77
2024/03/02 04:03:26;;;;;;;11.40;8.85;;;4.40;99.90;;;;;;5031071;28;20227;-77
2024/03/02 04:05:54;;;;;;;11.02;8.80;;;4.40;99.90;;;;;;5031040;28;20202;-77
2024/03/02 04:08:22;;;;;;;12.70;9.25;;;;;;;;;;5032882;28;20554;-77
2024/03/02 04:10:48;;;;;;;11.82;8.80;;;4.40;99.90;;;;;;5026808;28;20573;-77
2024/03/02 04:13:15;;;;;;;16.38;10.63;;;4.40;99.90;;;;;;5029041;28;20200;-78
2024/03/02 04:15:42;;;;;;;17.48;9.15;;;4.40;99.90;;;;;;5027080;28;20210;-77
2024/03/02 04:18:09;;;;;;;16.80;9.63;;;4.40;99.90;;;;;;5032430;28;20201;-77
2024/03/02 04:20:36;;;;;;;10.80;8.93;;;4.40;99.90;;;;;;5030924;28;20709;-78
2024/03/02 04:23:04;;;;;;;13.35;8.82;;;4.30;99.90;;;;;;5031354;28;20689;-78
2024/03/02 04:25:31;;;;;;;13.25;9.38;;;4.40;99.90;;;;;;5026165;28;20196;-77
2024/03/02 04:27:58;;;;;;;12.98;9.05;;;4.30;99.90;;;;;;5024816;28;20301;-78
2024/03/02 04:30:25;;;;;;;12.95;10.02;;;4.30;99.90;;;;;;5030022;28;20601;-78
2024/03/02 04:32:51;;;;;;;11.75;9.80;;;4.30;99.90;;;;;;5030629;28;20208;-78
2024/03/02 04:35:18;;;;;;;12.18;9.50;;;4.30;99.90;;;;;;5027081;28;20673;-78
2024/03/02 04:37:45;;;;;;;11.10;8.88;;;4.30;99.90;;;;;;5030853;28;20214;-78
2024/03/02 04:40:14;;;;;;;9.82;8.05;;;4.30;99.90;;;;;;5024312;28;20208;-78
2024/03/02 04:42:41;;;;;;;11.73;8.60;;;4.40;99.90;;;;;;5021523;28;20243;-78
2024/03/02 04:45:08;;;;;;;10.07;9.02;;;4.30;99.90;;;;;;5030132;28;20746;-78
2024/03/02 04:47:37;;;;;;;12.98;8.95;;;4.30;99.90;;;;;;5027826;28;20207;-78
2024/03/02 04:50:05;;;;;;;10.38;8.18;;;4.20;99.90;;;;;;5025388;28;20232;-77
2024/03/02 04:52:32;;;;;;;11.77;9.65;;;4.30;99.90;;;;;;5028870;28;20204;-77
2024/03/02 04:55:23;;;;;;;17.52;9.60;;;4.30;99.90;;;;;;5024940;28;20207;-77
2024/03/02 04:57:54;;;;;;;14.02;9.80;;;4.10;99.90;;;;;;5025505;28;20245;-77
2024/03/02 05:00:21;;;;;;;13.25;10.57;;;4.00;99.90;;;;;;5029010;28;20207;-77
2024/03/02 05:02:48;;;;;;;13.07;9.63;;;4.30;99.90;;;;;;5031649;28;20234;-77
2024/03/02 05:05:15;;;;;;;11.27;9.50;;;4.30;99.90;;;;;;5032891;28;20687;-77
2024/03/02 05:07:42;;;;;;;11.18;8.82;;;4.30;99.90;;;;;;5031965;28;20554;-77
2024/03/02 05:10:09;;;;;;;12.80;9.30;;;4.30;99.90;;;;;;5027073;28;20469;-77
2024/03/02 05:12:56;;;;;;;12.85;9.70;;;4.30;99.90;;;;;;5031800;28;20550;-77
2024/03/02 05:15:24;;;;;;;11.23;8.85;;;4.20;99.90;;;;;;5050781;27;20307;-77
2024/03/02 05:17:51;;;;;;;15.60;10.10;;;4.20;99.90;;;;;;5058959;27;20741;-77
2024/03/02 05:20:18;;;;;;;14.70;9.20;;;4.10;99.90;;;;;;5042062;28;20226;-78
2024/03/02 05:22:45;;;;;;;15.65;11.05;;;4.20;99.90;;;;;;5043057;28;20564;-77
2024/03/02 05:25:11;;;;;;;10.18;8.95;;;4.20;99.90;;;;;;5043385;28;20200;-77
2024/03/02 05:27:38;;;;;;;16.38;10.45;;;4.20;99.90;;;;;;5038181;28;20231;-77
2024/03/02 05:30:07;;;;;;;16.17;10.88;;;4.20;99.90;;;;;;5033528;28;20200;-77
2024/03/02 05:32:35;;;;;;;16.17;11.35;;;4.30;99.90;;;;;;5034548;28;20223;-77
2024/03/02 05:35:02;;;;;;;15.52;11.70;;;4.20;99.90;;;;;;5029849;28;20201;-77
2024/03/02 05:37:29;;;;;;;15.30;11.15;;;4.10;99.90;;;;;;5031564;28;20423;-78
2024/03/02 05:39:56;;;;;;;18.08;12.75;;;3.80;99.90;;;;;;5034206;28;20295;-76
2024/03/02 05:42:23;;;;;;;14.27;11.00;;;4.20;99.90;;;;;;5034877;28;20197;-77
2024/03/02 05:44:50;;;;;;;16.58;11.48;;;4.40;99.90;;;;;;5034619;28;20231;-76
2024/03/02 05:47:16;;;;;;;13.40;10.88;;;4.20;99.90;;;;;;5029577;28;20212;-77
2024/03/02 05:49:45;;;;;;;17.25;11.13;;;4.20;99.90;;;;;;5026408;28;20735;-76
2024/03/02 05:52:12;;;;;;;15.48;9.88;;;4.20;99.90;;;;;;5033543;28;20342;-76
2024/03/02 05:54:39;;;;;;;14.07;10.25;;;4.20;99.90;;;;;;5029865;28;20200;-76
2024/03/02 05:57:26;;;;;;;15.98;11.55;;;4.20;99.90;;;;;;5033613;28;20216;-76
2024/03/02 05:59:53;;;;;;;13.38;11.52;;;4.10;99.90;;;;;;5025751;28;20190;-76
2024/03/02 06:02:20;;;;;;;14.50;10.45;;;4.00;99.90;;;;;;5030232;28;20276;-76
2024/03/02 06:04:48;;;;;;;13.85;11.25;;;4.40;99.90;;;;;;5029814;28;20260;-76
2024/03/02 06:07:15;;;;;;;14.93;11.02;;;4.20;99.90;;;;;;5035189;27;20208;-76
2024/03/02 06:09:42;;;;;;;17.02;11.25;;;4.30;99.90;;;;;;5063413;27;20273;-76
2024/03/02 06:12:09;;;;;;;14.35;10.02;;;4.20;99.90;;;;;;5032492;28;20200;-76
2024/03/02 06:14:35;;;;;;;16.20;10.02;;;4.20;99.90;;;;;;5027011;28;20200;-76
2024/03/02 06:17:01;;;;;;;16.30;10.40;;;4.20;99.90;;;;;;5024813;28;20595;-76
2024/03/02 06:19:28;;;;;;;13.25;10.48;;;4.30;99.90;;;;;;5052326;27;20197;-76
2024/03/02 06:21:57;;;;;;;16.48;11.45;;;4.20;99.90;;;;;;5063439;27;20622;-76
2024/03/02 06:24:23;;;;;;;14.75;11.35;;;4.20;99.90;;;;;;5051336;27;20221;-76
2024/03/02 06:26:50;;;;;;;16.00;10.45;;;4.30;99.90;;;;;;5051332;27;20201;-76
2024/03/02 06:29:17;;;;;;;15.80;11.60;;;4.30;99.90;;;;;;5047359;27;20209;-69
2024/03/02 06:31:44;;;;;;;14.48;11.85;;;4.20;99.90;;;;;;5051074;27;20320;-71
2024/03/02 06:34:11;;;;;;;13.90;11.07;;;4.20;99.90;;;;;;5054689;27;20212;-73
2024/03/02 06:36:40;;;;;;;20.05;11.43;;;4.30;99.90;;;;;;5052114;27;20193;-75
2024/03/02 06:39:08;;;;;;;14.35;11.00;;;4.40;99.90;;;;;;5041969;27;20225;-78
2024/03/02 06:41:35;;;;;;;18.40;12.05;;;4.50;99.90;;;;;;5030350;28;20600;-71
2024/03/02 06:44:02;;;;;;;15.73;11.98;;;4.50;99.90;;;;;;5026933;28;20661;-78
2024/03/02 06:46:29;;;;;;;15.88;12.25;;;4.50;99.90;;;;;;5027512;27;20197;-77
2024/03/02 06:48:55;;;;;;;15.48;12.25;;;4.50;99.90;;;;;;5031248;28;20203;-78
2024/03/02 06:51:22;;;;;;;20.95;14.57;;;4.60;99.90;;;;;;5026722;28;20227;-78
2024/03/02 06:53:49;;;;;;;15.43;12.55;;;4.70;99.90;;;;;;5030577;28;20300;-77
2024/03/02 06:56:17;;;;;;;20.00;11.57;;;4.70;99.90;;;;;;5025330;28;20211;-77
2024/03/02 06:58:44;;;;;;;18.33;12.02;;;4.80;99.90;;;;;;5028687;28;20201;-77
2024/03/02 07:01:11;;;;;;;21.35;13.65;;;4.80;99.90;;;;;;5024967;28;20224;-76
2024/03/02 07:03:39;;;;;;;18.73;11.98;;;5.20;99.90;;;;;;5029985;28;20232;-82
2024/03/02 07:06:06;;;;;;;18.55;10.88;;;4.90;99.90;;;;;;5028676;28;20200;-79
2024/03/02 07:08:32;;;;;;;15.75;10.38;;;5.00;99.90;;;;;;5022818;28;20571;-79
2024/03/02 07:11:08;;;;;;;15.63;10.88;;;5.20;99.90;;;;;;5039381;27;20207;-79
2024/03/02 07:13:36;;;;;;;13.25;10.07;;;5.10;99.90;;;;;;5029399;28;20200;-78
2024/03/02 07:18:51;;;;;;;14.27;10.13;;;5.50;99.90;;;;;;5042090;27;20546;-78
2024/03/02 07:21:18;;;;;;;16.08;11.10;;;6.30;99.90;;;;;;5028391;28;20646;-78
2024/03/02 07:23:45;;;;;;;12.27;8.57;;;5.90;99.90;;;;;;5027478;28;20216;-78
2024/03/02 07:26:12;;;;;;;14.93;10.90;;;6.00;99.90;;;;;;5024018;28;20197;-78
2024/03/02 07:28:40;;;;;;;16.15;9.45;;;6.10;99.90;;;;;;5028742;28;20207;-78
2024/03/02 07:31:07;;;;;;;12.98;9.23;;;6.10;99.90;;;;;;5027666;28;20213;-78
2024/03/02 07:33:34;;;;;;;10.98;9.77;;;6.10;99.90;;;;;;5028080;28;20269;-78
2024/03/02 07:36:01;;;;;;;14.15;8.20;;;6.30;99.90;;;;;;5042796;27;20193;-78
2024/03/02 07:38:28;;;;;;;9.68;7.93;;;6.20;99.90;;;;;;5034469;27;20212;-78
2024/03/02 07:40:56;;;;;;;10.52;8.43;;;6.20;99.90;;;;;;5026011;28;20212;-77
2024/03/02 07:43:23;;;;;;;9.63;7.72;;;6.30;99.90;;;;;;5027993;28;20193;-78
2024/03/02 07:45:51;;;;;;;9.80;7.85;;;6.20;99.90;;;;;;5041412;27;20204;-79
2024/03/02 07:48:18;;;;;;;14.95;8.63;;;6.50;99.90;;;;;;5033549;27;20199;-76
2024/03/02 07:50:44;;;;;;;10.00;6.93;;;6.20;99.90;;;;;;5032303;27;20200;-74
2024/03/02 07:53:11;;;;;;;9.73;7.38;;;6.20;99.90;;;;;;5020407;28;20205;-74
2024/03/02 07:55:38;;;;;;;10.65;7.97;;;6.30;99.90;;;;;;5061078;27;20239;-75
2024/03/02 07:58:05;;;;;;;12.23;8.65;;;6.20;99.90;;;;;;5031035;27;20524;-74
2024/03/02 08:00:32;;;;;;;10.57;7.50;;;6.20;99.90;;;;;;5025618;28;20200;-75
2024/03/02 08:03:01;;;;;;;13.63;8.90;;;6.10;99.90;;;;;;5026017;28;20196;-74
2024/03/02 08:05:28;;;;;;;8.07;6.57;;;6.10;99.90;;;;;;5020055;28;21019;-74
2024/03/02 08:07:55;;;;;;;11.77;7.88;;;6.30;99.90;;;;;;5025687;28;20201;-74
2024/03/02 08:10:21;;;;;;;11.65;7.57;;;6.20;99.90;;;;;;5025184;28;20304;-72
2024/03/02 08:12:48;;;;;;;9.50;7.07;;;6.40;99.90;;;;;;5025565;28;20311;-78
2024/03/02 08:15:15;;;;;;;10.52;8.00;;;6.30;99.90;;;;;;5025329;28;20311;-73
2024/03/02 08:17:45;;;;;;;11.37;8.23;;;6.40;99.90;;;;;;5025027;28;20205;-73
2024/03/02 08:20:13;;;;;;;11.80;8.32;;;6.30;99.90;;;;;;5024630;28;20735;-74
2024/03/02 08:22:41;;;;;;;9.73;7.97;;;6.40;99.90;;;;;;5025057;28;20219;-74
2024/03/02 08:25:09;;;;;;;10.02;8.10;;;6.40;99.90;;;;;;5027248;27;20678;-74
2024/03/02 08:27:36;;;;;;;10.90;8.47;;;6.50;99.90;;;;;;5031617;28;20545;-74
2024/03/02 08:30:06;;;;;;;11.90;8.40;;;6.70;99.90;;;;;;5027976;28;20629;-75
2024/03/02 08:32:33;;;;;;;13.00;8.50;;;6.80;99.90;;;;;;5029117;28;20654;-73
2024/03/02 08:34:59;;;;;;;10.07;8.00;;;7.00;99.90;;;;;;5032165;28;20630;-74
2024/03/02 08:37:28;;;;;;;8.67;7.70;;;7.10;99.90;;;;;;5065083;27;20635;-74
2024/03/02 08:39:55;;;;;;;13.97;8.90;;;7.20;99.90;;;;;;5076617;27;20686;-74
2024/03/02 08:42:22;;;;;;;11.10;9.10;;;7.30;99.90;;;;;;5085203;27;20635;-79
2024/03/02 08:44:49;;;;;;;11.63;8.00;;;7.40;99.90;;;;;;5036593;28;20666;-79
2024/03/02 08:47:16;;;;;;;8.63;6.27;;;7.40;99.90;;;;;;5038349;28;20763;-78
2024/03/02 08:49:43;;;;;;;9.33;6.47;;;7.50;99.90;;;;;;5031352;28;20634;-78
2024/03/02 08:52:10;;;;;;;10.60;7.67;;;7.50;99.90;;;;;;5029575;28;20635;-78
2024/03/02 08:54:38;;;;;;;10.10;7.93;;;7.70;99.90;;;;;;5052868;28;20722;-79
2024/03/02 08:57:05;;;;;;;10.40;8.33;;;7.90;99.90;;;;;;5027743;28;20620;-78
2024/03/02 08:59:32;;;;;;;8.77;7.63;;;8.00;99.90;;;;;;5027867;28;20627;-79
2024/03/02 09:02:00;;;;;;;9.00;7.27;;;8.20;99.90;;;;;;5030699;28;20632;-77
2024/03/02 09:04:27;;;;;;;9.00;6.80;;;8.30;99.90;;;;;;5030129;28;20652;-77
2024/03/02 09:06:53;;;;;;;8.10;6.97;;;8.30;99.60;;;;;;5050015;28;21100;-77
2024/03/02 09:09:20;;;;;;;8.60;6.90;;;8.30;99.80;;;;;;5041181;28;20631;-77
2024/03/02 09:11:54;;;;;;;12.03;7.37;;;;;;;;;;5035784;28;20633;-78
2024/03/02 09:14:21;;;;;;;6.80;6.13;;;8.80;99.40;;;;;;5032069;28;21176;-76
2024/03/02 09:16:48;;;;;;;9.47;7.43;;;9.00;99.90;;;;;;5029140;28;20659;-76
2024/03/02 09:19:15;;;;;;;7.80;7.00;;;9.00;99.90;;;;;;5030198;28;20637;-78
2024/03/02 09:21:43;;;;;;;7.83;5.87;;;8.90;99.90;;;;;;5029628;28;21238;-77
2024/03/02 09:24:10;;;;;;;7.03;5.23;;;9.00;98.20;;;;;;5025798;28;20656;-76
2024/03/02 09:26:37;;;;;;;8.20;5.47;;;9.10;98.60;;;;;;5019959;28;20636;-76
2024/03/02 09:29:05;;;;;;;9.93;5.57;;;9.20;97.40;;;;;;5029674;28;20635;-77
2024/03/02 09:31:32;;;;;;;5.13;4.70;;;9.30;97.50;;;;;;5024087;28;21189;-75
2024/03/02 09:33:59;;;;;;;5.73;5.13;;;9.50;97.30;;;;;;5028943;28;20643;-75
2024/03/02 09:36:25;;;;;;;8.50;4.43;;;9.60;97.00;;;;;;5025845;28;20628;-78
2024/03/02 09:38:52;;;;;;;6.03;4.83;;;9.80;96.30;;;;;;5026034;28;20629;-75
2024/03/02 09:41:20;;;;;;;5.67;5.13;;;9.90;99.90;;;;;;5028661;28;20636;-76
2024/03/02 09:43:47;;;;;;;5.40;4.07;;;9.80;99.90;;;;;;5039169;27;20632;-76
2024/03/02 09:46:16;;;;;;;4.40;4.00;;;10.00;94.90;;;;;;5039187;28;20733;-77
2024/03/02 09:48:49;;;;;;;5.30;4.70;;;9.90;99.90;;;;;;5029794;28;20732;-76
2024/03/02 09:51:19;;;;;;;5.13;4.30;;;10.20;95.10;;;;;;5025355;28;20630;-77
2024/03/02 09:53:47;;;;;;;4.70;4.00;;;10.20;94.70;;;;;;5029462;28;21030;-77
2024/03/02 09:56:15;;;;;;;4.20;3.70;;;10.30;94.70;;;;;;5026477;28;20626;-77
2024/03/02 09:58:43;;;;;;;6.70;4.20;;;10.50;94.30;;;;;;5031113;28;20635;-77
2024/03/02 10:01:15;;;;;;;6.67;4.70;;;10.90;99.90;;;;;;5031279;28;20638;-78
2024/03/02 10:03:41;;;;;;;5.40;4.90;;;10.50;94.10;;;;;;5031086;28;20674;-77
2024/03/02 10:06:22;;;;;;;4.73;4.10;;;10.70;94.40;;;;;;5017096;28;20772;-77
2024/03/02 10:08:49;;;;;;;5.50;4.40;;;10.70;93.90;;;;;;5028271;27;20982;-77
2024/03/02 10:11:28;;;;;;;5.70;5.13;;;10.80;93.70;;;;;;5043817;27;20641;-77
2024/03/02 10:14:09;;;;;;;7.77;4.80;;;10.80;94.00;;;;;;5033427;27;20627;-77
2024/03/02 10:16:38;;;;;;;5.20;4.40;;;10.90;94.10;;;;;;5029228;27;21171;-76
2024/03/02 10:19:21;;;;;;;6.60;4.87;;;11.00;93.50;;;;;;5030127;28;20707;-75
2024/03/02 10:21:49;;;;;;;4.70;4.20;;;10.80;99.90;;;;;;5027864;27;20639;-75
2024/03/02 10:24:16;;;;;;;5.43;4.37;;;11.70;99.90;;;;;;5031031;27;21193;-76
2024/03/02 10:26:43;;;;;;;6.27;4.80;;;11.20;93.90;;;;;;5069576;27;20727;-77
2024/03/02 10:29:10;;;;;;;4.50;4.10;;;11.30;93.70;;;;;;5028610;28;20628;-75
2024/03/02 10:31:39;;;;;;;5.00;4.37;;;11.30;93.10;;;;;;5028298;28;20675;-76
2024/03/02 10:34:06;;;;;;;4.23;3.73;;;11.50;99.90;;;;;;5040357;27;21076;-76
2024/03/02 10:36:34;;;;;;;5.53;3.63;;;11.30;93.30;;;;;;5045609;27;20651;-76
2024/03/02 10:39:03;;;;;;;4.50;3.80;;;11.40;92.90;;;;;;5068778;27;20696;-76
2024/03/02 10:41:34;;;;;;;3.80;3.50;;;11.70;96.00;;;;;;5025654;28;20688;-76
2024/03/02 10:44:03;;;;;;;5.87;3.60;;;10.70;92.50;;;;;;5028236;28;20627;-75
2024/03/02 10:46:31;;;;;;;4.40;3.70;;;11.50;92.50;;;;;;5044124;27;21147;-76
2024/03/02 10:49:00;;;;;;;5.30;4.33;;;11.70;92.20;;;;;;5093642;27;21168;-76
2024/03/02 10:51:28;;;;;;;3.60;3.30;;;11.90;99.90;;;;;;5023908;28;20737;-76
2024/03/02 10:53:56;;;;;;;5.50;3.40;;;11.70;91.50;;;;;;5027852;28;20990;-76
2024/03/02 10:56:28;;;;;;;5.57;3.10;;;11.70;91.90;;;;;;5026582;28;20661;-76
2024/03/02 10:59:02;;;;;;;2.90;2.70;;;11.70;91.80;;;;;;5022657;28;20637;-76
2024/03/02 11:01:31;;;;;;;4.23;3.60;;;11.90;91.50;;;;;;5026316;28;21019;-77
2024/03/02 11:04:00;;;;;;;5.00;4.27;;;11.70;99.90;;;;;;5026604;28;20620;-77
2024/03/02 11:06:31;;;;;;;3.43;3.13;;;11.90;99.80;;;;;;5024532;28;20669;-77
2024/03/02 11:09:03;;;;;;;4.40;3.93;;;12.00;91.90;;;;;;5025782;28;20618;-77
2024/03/02 11:11:34;;;;;;;5.63;4.63;;;12.10;92.30;;;;;;5022045;28;21184;-77
2024/03/02 11:14:08;;;;;;;7.53;3.73;;;12.00;92.10;;;;;;5026343;28;20637;-77
2024/03/02 11:16:36;;;;;;;4.07;3.47;;;12.10;92.00;;;;;;5024331;28;20648;-78
2024/03/02 11:19:06;;;;;;;3.30;3.00;;;12.40;99.90;;;;;;5024940;28;20667;-75
2024/03/02 11:21:33;;;;;;;3.07;2.80;;;12.10;91.60;;;;;;5025447;28;20636;-75
2024/03/02 11:24:02;;;;;;;3.87;3.47;;;12.20;91.70;;;;;;5053787;27;20633;-76
2024/03/02 11:26:29;;;;;;;3.43;3.13;;;12.20;91.60;;;;;;5044704;27;21248;-76
2024/03/02 11:28:58;;;;;;;3.27;2.43;;;12.00;96.60;;;;;;5025725;28;20621;-80
2024/03/02 11:32:00;;;;;;;2.77;2.50;;;12.20;90.70;;;;;;5024195;28;20639;-78
2024/03/02 11:34:32;;;;;;;2.33;2.13;;;12.30;90.70;;;;;;5021260;28;20643;-76
2024/03/02 11:36:59;;;;;;;2.27;2.07;;;12.30;89.90;;;;;;5025872;28;20728;-77
2024/03/02 11:39:26;;;;;;;2.60;2.00;;;12.70;90.50;;;;;;5067539;27;20648;-78
2024/03/02 11:41:53;;;;;;;1.87;1.33;;;12.40;90.90;;;;;;5063497;27;20704;-77
2024/03/02 11:44:20;;;;;;;2.00;1.63;;;12.50;88.70;;;;;;5031182;28;20635;-77
2024/03/02 11:46:53;;;;;;;1.10;1.00;;;12.70;93.80;;;;;;5031788;28;20680;-78
2024/03/02 11:49:37;;;;;;;1.57;1.37;;;12.90;93.40;;;;;;5027953;28;20643;-77
2024/03/02 11:52:14;;;;;;;1.20;1.10;;;12.90;90.10;;;;;;5056405;27;21063;-79
2024/03/02 11:54:46;;;;;;;1.10;1.00;;;12.80;93.10;;;;;;5028968;27;20634;-77
2024/03/02 11:57:13;;;;;;;1.33;1.23;;;12.80;83.20;;;;;;5023148;28;20679;-78
2024/03/02 11:59:40;;;;;;;1.23;1.13;;;12.70;83.80;;;;;;5032171;28;20634;-77
2024/03/02 12:02:07;;;;;;;2.10;1.60;;;12.80;85.70;;;;;;5053016;27;20635;-78
2024/03/02 12:04:37;;;;;;;1.43;1.10;;;12.80;87.40;;;;;;5030738;28;21056;-77
2024/03/02 12:07:04;;;;;;;2.20;1.80;;;12.70;93.60;;;;;;5037064;27;21026;-77
2024/03/02 12:09:31;;;;;;;1.90;1.80;;;12.90;87.60;;;;;;5030108;28;20629;-78
2024/03/02 12:12:05;;;;;;;2.60;1.80;;;12.90;86.80;;;;;;5030569;28;20634;-77
2024/03/02 12:14:36;;;;;;;3.20;2.13;;;13.00;90.40;;;;;;5030441;28;20627;-81
2024/03/02 12:17:03;;;;;;;1.47;1.37;;;13.00;88.30;;;;;;5030358;28;20732;-79
2024/03/02 12:19:31;;;;;;;12.47;2.17;;;13.20;86.90;;;;;;5029034;28;20649;-79
2024/03/02 12:22:00;;;;;;;2.00;1.80;;;13.20;85.90;;;;;;5026008;28;20642;-80
2024/03/02 12:24:29;;;;;;;1.80;1.57;;;13.30;84.70;;;;;;5018669;28;20630;-79
2024/03/02 12:26:56;;;;;;;1.67;1.50;;;13.30;82.50;;;;;;5029895;28;21058;-78
2024/03/02 12:29:24;;;;;;;1.83;1.67;;;13.30;84.40;;;;;;5030736;28;20737;-79
2024/03/02 12:31:52;;;;;;;1.40;1.30;;;13.40;84.40;;;;;;5029412;28;20729;-79
2024/03/02 12:34:19;;;;;;;1.70;1.60;;;13.50;84.00;;;;;;5026692;28;21050;-80
2024/03/02 12:36:49;;;;;;;3.50;1.40;;;13.30;86.50;;;;;;5029514;28;20632;-79
2024/03/02 12:39:18;;;;;;;2.20;1.67;;;13.40;83.30;;;;;;5030812;28;20682;-79
2024/03/02 12:41:45;;;;;;;1.60;1.43;;;13.50;83.40;;;;;;5023490;28;21043;-79
2024/03/02 12:44:12;;;;;;;2.83;1.90;;;13.50;83.90;;;;;;5028438;28;20631;-80
2024/03/02 12:46:39;;;;;;;1.80;1.70;;;13.60;82.70;;;;;;5027374;28;20669;-80
2024/03/02 12:49:09;;;;;;;1.67;1.30;;;13.70;84.60;;;;;;5024814;28;20622;-80
2024/03/02 12:51:36;;;;;;;1.80;1.67;;;13.60;84.10;;;;;;5025140;28;20634;-80
2024/03/02 12:54:05;;;;;;;1.90;1.70;;;13.60;82.10;;;;;;5028772;28;20628;-80
2024/03/02 12:56:33;;;;;;;2.40;1.70;;;13.60;81.90;;;;;;5027919;28;20656;-80